sensor_id;sensor_type;location;lat;lon;timestamp;P1;durP1;ratioP1;P2;durP2;ratioP2
11211;SDS011;5663;50.864;12.096;2023-02-28T00:01:24;6.43;;;5.23;;
11211;SDS011;5663;50.864;12.096;2023-02-28T00:03:53;7.07;;;5.53;;
11211;SDS011;5663;50.864;12.096;2023-02-28T00:06:21;5.93;;;4.60;;
11211;SDS011;5663;50.864;12.096;2023-02-28T00:08:49;7.53;;;5.60;;
11211;SDS011;5663;50.864;12.096;2023-02-28T00:11:17;6.33;;;5.50;;
11211;SDS011;5663;50.864;12.096;2023-02-28T00:13:45;6.83;;;5.70;;
11211;SDS011;5663;50.864;12.096;2023-02-28T00:16:14;5.93;;;4.60;;
11211;SDS011;5663;50.864;12.096;2023-02-28T00:18:46;9.73;;;6.13;;
11211;SDS011;5663;50.864;12.096;2023-02-28T00:21:14;8.50;;;5.60;;
11211;SDS011;5663;50.864;12.096;2023-02-28T00:23:42;6.50;;;4.97;;
11211;SDS011;5663;50.864;12.096;2023-02-28T00:26:10;7.57;;;5.00;;
11211;SDS011;5663;50.864;12.096;2023-02-28T00:28:39;7.50;;;5.73;;
11211;SDS011;5663;50.864;12.096;2023-02-28T00:31:07;7.67;;;5.63;;
11211;SDS011;5663;50.864;12.096;2023-02-28T00:33:34;6.77;;;6.00;;
11211;SDS011;5663;50.864;12.096;2023-02-28T00:36:08;6.87;;;4.90;;
11211;SDS011;5663;50.864;12.096;2023-02-28T00:38:38;7.60;;;5.50;;
11211;SDS011;5663;50.864;12.096;2023-02-28T00:41:08;6.37;;;4.17;;
11211;SDS011;5663;50.864;12.096;2023-02-28T00:43:37;6.27;;;5.17;;
11211;SDS011;5663;50.864;12.096;2023-02-28T00:46:06;5.33;;;4.83;;
11211;SDS011;5663;50.864;12.096;2023-02-28T00:48:34;7.53;;;5.33;;
11211;SDS011;5663;50.864;12.096;2023-02-28T00:51:02;7.63;;;5.10;;
11211;SDS011;5663;50.864;12.096;2023-02-28T00:53:32;6.33;;;5.23;;
11211;SDS011;5663;50.864;12.096;2023-02-28T00:56:02;6.40;;;5.20;;
11211;SDS011;5663;50.864;12.096;2023-02-28T00:58:30;7.07;;;5.47;;
11211;SDS011;5663;50.864;12.096;2023-02-28T01:00:57;5.70;;;4.60;;
11211;SDS011;5663;50.864;12.096;2023-02-28T01:03:25;5.53;;;4.60;;
11211;SDS011;5663;50.864;12.096;2023-02-28T01:05:53;6.00;;;5.20;;
11211;SDS011;5663;50.864;12.096;2023-02-28T01:08:21;5.30;;;4.80;;
11211;SDS011;5663;50.864;12.096;2023-02-28T01:10:50;6.53;;;5.60;;
11211;SDS011;5663;50.864;12.096;2023-02-28T01:13:18;6.47;;;5.20;;
11211;SDS011;5663;50.864;12.096;2023-02-28T01:15:49;6.70;;;5.00;;
11211;SDS011;5663;50.864;12.096;2023-02-28T01:18:18;8.50;;;5.50;;
11211;SDS011;5663;50.864;12.096;2023-02-28T01:20:45;5.70;;;4.33;;
11211;SDS011;5663;50.864;12.096;2023-02-28T01:23:13;6.80;;;5.33;;
11211;SDS011;5663;50.864;12.096;2023-02-28T01:25:42;6.73;;;4.93;;
11211;SDS011;5663;50.864;12.096;2023-02-28T01:28:11;5.67;;;4.57;;
11211;SDS011;5663;50.864;12.096;2023-02-28T01:30:39;8.03;;;5.97;;
11211;SDS011;5663;50.864;12.096;2023-02-28T01:33:07;6.07;;;4.63;;
11211;SDS011;5663;50.864;12.096;2023-02-28T01:35:35;6.20;;;4.90;;
11211;SDS011;5663;50.864;12.096;2023-02-28T01:38:03;6.73;;;5.33;;
11211;SDS011;5663;50.864;12.096;2023-02-28T01:47:23;7.57;;;5.13;;
11211;SDS011;5663;50.864;12.096;2023-02-28T01:49:54;4.93;;;4.33;;
11211;SDS011;5663;50.864;12.096;2023-02-28T01:52:22;6.10;;;5.43;;
11211;SDS011;5663;50.864;12.096;2023-02-28T01:54:51;7.63;;;5.27;;
11211;SDS011;5663;50.864;12.096;2023-02-28T01:57:21;7.67;;;5.40;;
11211;SDS011;5663;50.864;12.096;2023-02-28T01:59:54;7.93;;;5.87;;
11211;SDS011;5663;50.864;12.096;2023-02-28T02:02:27;5.97;;;4.80;;
11211;SDS011;5663;50.864;12.096;2023-02-28T02:08:04;7.03;;;5.10;;
11211;SDS011;5663;50.864;12.096;2023-02-28T02:10:35;7.60;;;5.50;;
11211;SDS011;5663;50.864;12.096;2023-02-28T02:13:21;7.10;;;5.30;;
11211;SDS011;5663;50.864;12.096;2023-02-28T02:16:04;10.20;;;6.37;;
11211;SDS011;5663;50.864;12.096;2023-02-28T02:18:43;7.20;;;5.33;;
11211;SDS011;5663;50.864;12.096;2023-02-28T02:21:26;7.87;;;5.40;;
11211;SDS011;5663;50.864;12.096;2023-02-28T02:24:40;7.20;;;5.27;;
11211;SDS011;5663;50.864;12.096;2023-02-28T02:27:33;7.80;;;5.93;;
11211;SDS011;5663;50.864;12.096;2023-02-28T02:36:17;9.00;;;6.23;;
11211;SDS011;5663;50.864;12.096;2023-02-28T02:38:50;8.30;;;5.10;;
11211;SDS011;5663;50.864;12.096;2023-02-28T02:41:24;11.13;;;7.10;;
11211;SDS011;5663;50.864;12.096;2023-02-28T02:44:01;12.77;;;7.33;;
11211;SDS011;5663;50.864;12.096;2023-02-28T02:46:32;9.00;;;6.23;;
11211;SDS011;5663;50.864;12.096;2023-02-28T02:49:03;9.13;;;6.13;;
11211;SDS011;5663;50.864;12.096;2023-02-28T02:51:37;12.10;;;6.57;;
11211;SDS011;5663;50.864;12.096;2023-02-28T02:54:08;9.63;;;6.33;;
11211;SDS011;5663;50.864;12.096;2023-02-28T02:56:41;9.70;;;6.60;;
11211;SDS011;5663;50.864;12.096;2023-02-28T02:59:12;10.77;;;6.47;;
11211;SDS011;5663;50.864;12.096;2023-02-28T03:01:47;10.07;;;5.80;;
11211;SDS011;5663;50.864;12.096;2023-02-28T03:04:18;8.17;;;6.07;;
11211;SDS011;5663;50.864;12.096;2023-02-28T03:06:49;9.30;;;6.23;;
11211;SDS011;5663;50.864;12.096;2023-02-28T03:09:20;8.60;;;6.20;;
11211;SDS011;5663;50.864;12.096;2023-02-28T03:11:49;8.07;;;5.93;;
11211;SDS011;5663;50.864;12.096;2023-02-28T03:14:22;9.30;;;6.43;;
11211;SDS011;5663;50.864;12.096;2023-02-28T03:16:58;8.50;;;6.50;;
11211;SDS011;5663;50.864;12.096;2023-02-28T03:19:45;9.83;;;5.80;;
11211;SDS011;5663;50.864;12.096;2023-02-28T03:22:24;11.13;;;6.47;;
11211;SDS011;5663;50.864;12.096;2023-02-28T03:25:06;9.23;;;6.37;;
11211;SDS011;5663;50.864;12.096;2023-02-28T03:27:40;7.93;;;5.80;;
11211;SDS011;5663;50.864;12.096;2023-02-28T03:30:14;7.97;;;5.43;;
11211;SDS011;5663;50.864;12.096;2023-02-28T03:32:51;12.13;;;6.23;;
11211;SDS011;5663;50.864;12.096;2023-02-28T03:35:24;8.40;;;6.27;;
11211;SDS011;5663;50.864;12.096;2023-02-28T03:37:58;6.63;;;5.73;;
11211;SDS011;5663;50.864;12.096;2023-02-28T03:40:32;7.43;;;6.00;;
11211;SDS011;5663;50.864;12.096;2023-02-28T03:43:04;11.43;;;6.00;;
11211;SDS011;5663;50.864;12.096;2023-02-28T03:45:37;8.53;;;6.00;;
11211;SDS011;5663;50.864;12.096;2023-02-28T03:48:09;6.97;;;5.50;;
11211;SDS011;5663;50.864;12.096;2023-02-28T03:50:44;9.97;;;5.93;;
11211;SDS011;5663;50.864;12.096;2023-02-28T03:53:18;8.93;;;6.10;;
11211;SDS011;5663;50.864;12.096;2023-02-28T03:55:49;9.17;;;6.23;;
11211;SDS011;5663;50.864;12.096;2023-02-28T03:58:22;8.07;;;5.90;;
11211;SDS011;5663;50.864;12.096;2023-02-28T04:00:56;8.47;;;5.97;;
11211;SDS011;5663;50.864;12.096;2023-02-28T04:03:34;7.70;;;5.93;;
11211;SDS011;5663;50.864;12.096;2023-02-28T04:06:03;7.37;;;5.23;;
11211;SDS011;5663;50.864;12.096;2023-02-28T04:08:34;8.53;;;5.50;;
11211;SDS011;5663;50.864;12.096;2023-02-28T04:11:03;11.17;;;6.00;;
11211;SDS011;5663;50.864;12.096;2023-02-28T04:13:33;11.37;;;6.00;;
11211;SDS011;5663;50.864;12.096;2023-02-28T04:16:01;8.63;;;5.80;;
11211;SDS011;5663;50.864;12.096;2023-02-28T04:18:37;8.13;;;5.63;;
11211;SDS011;5663;50.864;12.096;2023-02-28T04:21:05;10.37;;;6.10;;
11211;SDS011;5663;50.864;12.096;2023-02-28T04:23:34;6.47;;;5.23;;
11211;SDS011;5663;50.864;12.096;2023-02-28T04:26:03;7.00;;;5.57;;
11211;SDS011;5663;50.864;12.096;2023-02-28T04:28:31;11.20;;;7.00;;
11211;SDS011;5663;50.864;12.096;2023-02-28T04:31:00;11.53;;;7.77;;
11211;SDS011;5663;50.864;12.096;2023-02-28T04:33:30;9.17;;;6.50;;
11211;SDS011;5663;50.864;12.096;2023-02-28T04:35:59;8.73;;;5.90;;
11211;SDS011;5663;50.864;12.096;2023-02-28T04:38:29;8.07;;;5.93;;
11211;SDS011;5663;50.864;12.096;2023-02-28T04:40:59;7.30;;;5.40;;
11211;SDS011;5663;50.864;12.096;2023-02-28T04:43:27;6.07;;;4.47;;
11211;SDS011;5663;50.864;12.096;2023-02-28T04:45:55;6.43;;;4.60;;
11211;SDS011;5663;50.864;12.096;2023-02-28T04:48:24;8.43;;;5.67;;
11211;SDS011;5663;50.864;12.096;2023-02-28T04:50:52;6.67;;;5.10;;
11211;SDS011;5663;50.864;12.096;2023-02-28T04:53:20;7.27;;;5.13;;
11211;SDS011;5663;50.864;12.096;2023-02-28T04:55:48;9.03;;;5.80;;
11211;SDS011;5663;50.864;12.096;2023-02-28T04:58:17;8.03;;;5.43;;
11211;SDS011;5663;50.864;12.096;2023-02-28T05:00:45;9.70;;;5.17;;
11211;SDS011;5663;50.864;12.096;2023-02-28T05:03:13;9.57;;;6.00;;
11211;SDS011;5663;50.864;12.096;2023-02-28T05:05:40;10.60;;;6.03;;
11211;SDS011;5663;50.864;12.096;2023-02-28T05:08:08;9.40;;;6.20;;
11211;SDS011;5663;50.864;12.096;2023-02-28T05:10:36;8.93;;;6.13;;
11211;SDS011;5663;50.864;12.096;2023-02-28T05:13:04;7.40;;;5.80;;
11211;SDS011;5663;50.864;12.096;2023-02-28T05:15:34;10.77;;;5.77;;
11211;SDS011;5663;50.864;12.096;2023-02-28T05:18:02;8.80;;;6.07;;
11211;SDS011;5663;50.864;12.096;2023-02-28T05:20:29;9.23;;;5.90;;
11211;SDS011;5663;50.864;12.096;2023-02-28T05:22:57;8.17;;;5.33;;
11211;SDS011;5663;50.864;12.096;2023-02-28T05:25:26;7.57;;;5.60;;
11211;SDS011;5663;50.864;12.096;2023-02-28T05:27:54;9.43;;;5.97;;
11211;SDS011;5663;50.864;12.096;2023-02-28T05:30:22;11.90;;;6.53;;
11211;SDS011;5663;50.864;12.096;2023-02-28T05:32:51;8.07;;;6.00;;
11211;SDS011;5663;50.864;12.096;2023-02-28T05:35:19;8.97;;;5.37;;
11211;SDS011;5663;50.864;12.096;2023-02-28T05:37:46;8.90;;;5.23;;
11211;SDS011;5663;50.864;12.096;2023-02-28T05:40:14;8.47;;;4.80;;
11211;SDS011;5663;50.864;12.096;2023-02-28T05:42:42;7.33;;;5.27;;
11211;SDS011;5663;50.864;12.096;2023-02-28T05:45:10;8.97;;;5.83;;
11211;SDS011;5663;50.864;12.096;2023-02-28T05:47:39;9.13;;;6.03;;
11211;SDS011;5663;50.864;12.096;2023-02-28T05:50:09;6.97;;;5.47;;
11211;SDS011;5663;50.864;12.096;2023-02-28T05:52:37;9.20;;;6.10;;
11211;SDS011;5663;50.864;12.096;2023-02-28T05:55:05;8.67;;;5.80;;
11211;SDS011;5663;50.864;12.096;2023-02-28T05:57:34;8.37;;;6.10;;
11211;SDS011;5663;50.864;12.096;2023-02-28T06:00:05;7.27;;;5.30;;
11211;SDS011;5663;50.864;12.096;2023-02-28T06:02:33;10.87;;;6.07;;
11211;SDS011;5663;50.864;12.096;2023-02-28T06:05:01;7.63;;;5.33;;
11211;SDS011;5663;50.864;12.096;2023-02-28T06:07:30;10.07;;;6.00;;
11211;SDS011;5663;50.864;12.096;2023-02-28T06:09:58;8.47;;;6.27;;
11211;SDS011;5663;50.864;12.096;2023-02-28T06:12:26;10.07;;;5.63;;
11211;SDS011;5663;50.864;12.096;2023-02-28T06:14:53;7.77;;;6.33;;
11211;SDS011;5663;50.864;12.096;2023-02-28T06:17:21;7.17;;;5.03;;
11211;SDS011;5663;50.864;12.096;2023-02-28T06:19:48;9.73;;;6.20;;
11211;SDS011;5663;50.864;12.096;2023-02-28T06:22:16;8.80;;;6.33;;
11211;SDS011;5663;50.864;12.096;2023-02-28T06:24:45;11.37;;;6.93;;
11211;SDS011;5663;50.864;12.096;2023-02-28T06:27:13;8.97;;;6.47;;
11211;SDS011;5663;50.864;12.096;2023-02-28T06:29:41;9.10;;;6.60;;
11211;SDS011;5663;50.864;12.096;2023-02-28T06:32:09;10.40;;;6.37;;
11211;SDS011;5663;50.864;12.096;2023-02-28T06:34:36;9.27;;;6.50;;
11211;SDS011;5663;50.864;12.096;2023-02-28T06:37:04;11.10;;;6.57;;
11211;SDS011;5663;50.864;12.096;2023-02-28T06:39:32;8.80;;;6.57;;
11211;SDS011;5663;50.864;12.096;2023-02-28T06:42:01;11.70;;;6.53;;
11211;SDS011;5663;50.864;12.096;2023-02-28T06:44:29;13.77;;;6.80;;
11211;SDS011;5663;50.864;12.096;2023-02-28T06:47:01;9.73;;;7.13;;
11211;SDS011;5663;50.864;12.096;2023-02-28T06:49:30;11.70;;;6.47;;
11211;SDS011;5663;50.864;12.096;2023-02-28T06:51:58;11.23;;;6.97;;
11211;SDS011;5663;50.864;12.096;2023-02-28T06:54:26;9.07;;;6.60;;
11211;SDS011;5663;50.864;12.096;2023-02-28T06:56:54;9.90;;;6.90;;
11211;SDS011;5663;50.864;12.096;2023-02-28T06:59:23;10.97;;;6.83;;
11211;SDS011;5663;50.864;12.096;2023-02-28T07:01:51;9.97;;;6.93;;
11211;SDS011;5663;50.864;12.096;2023-02-28T07:04:18;11.17;;;6.50;;
11211;SDS011;5663;50.864;12.096;2023-02-28T07:06:46;9.43;;;6.67;;
11211;SDS011;5663;50.864;12.096;2023-02-28T07:09:14;10.50;;;6.57;;
11211;SDS011;5663;50.864;12.096;2023-02-28T07:11:42;10.57;;;6.80;;
11211;SDS011;5663;50.864;12.096;2023-02-28T07:14:10;9.60;;;6.20;;
11211;SDS011;5663;50.864;12.096;2023-02-28T07:16:39;9.10;;;6.10;;
11211;SDS011;5663;50.864;12.096;2023-02-28T07:19:07;9.60;;;6.13;;
11211;SDS011;5663;50.864;12.096;2023-02-28T07:21:35;8.30;;;6.00;;
11211;SDS011;5663;50.864;12.096;2023-02-28T07:24:04;12.90;;;6.70;;
11211;SDS011;5663;50.864;12.096;2023-02-28T07:26:34;11.13;;;6.70;;
11211;SDS011;5663;50.864;12.096;2023-02-28T07:29:02;12.37;;;7.30;;
11211;SDS011;5663;50.864;12.096;2023-02-28T07:31:29;10.97;;;6.37;;
11211;SDS011;5663;50.864;12.096;2023-02-28T07:33:58;11.40;;;6.57;;
11211;SDS011;5663;50.864;12.096;2023-02-28T07:36:28;9.50;;;6.77;;
11211;SDS011;5663;50.864;12.096;2023-02-28T07:39:00;10.83;;;7.27;;
11211;SDS011;5663;50.864;12.096;2023-02-28T07:41:46;9.40;;;6.90;;
11211;SDS011;5663;50.864;12.096;2023-02-28T07:44:36;10.60;;;7.03;;
11211;SDS011;5663;50.864;12.096;2023-02-28T07:47:07;10.73;;;7.00;;
11211;SDS011;5663;50.864;12.096;2023-02-28T07:49:37;14.03;;;6.83;;
11211;SDS011;5663;50.864;12.096;2023-02-28T07:52:05;11.13;;;6.57;;
11211;SDS011;5663;50.864;12.096;2023-02-28T07:54:34;9.43;;;7.00;;
11211;SDS011;5663;50.864;12.096;2023-02-28T07:57:01;9.97;;;6.90;;
11211;SDS011;5663;50.864;12.096;2023-02-28T07:59:29;9.23;;;6.93;;
11211;SDS011;5663;50.864;12.096;2023-02-28T08:01:57;10.97;;;6.67;;
11211;SDS011;5663;50.864;12.096;2023-02-28T08:04:25;11.00;;;7.00;;
11211;SDS011;5663;50.864;12.096;2023-02-28T08:06:55;11.53;;;7.37;;
11211;SDS011;5663;50.864;12.096;2023-02-28T08:09:22;11.50;;;7.03;;
11211;SDS011;5663;50.864;12.096;2023-02-28T08:11:51;11.37;;;7.63;;
11211;SDS011;5663;50.864;12.096;2023-02-28T08:14:18;12.80;;;7.87;;
11211;SDS011;5663;50.864;12.096;2023-02-28T08:16:46;12.60;;;7.17;;
11211;SDS011;5663;50.864;12.096;2023-02-28T08:19:14;12.30;;;7.97;;
11211;SDS011;5663;50.864;12.096;2023-02-28T08:21:42;14.80;;;9.63;;
11211;SDS011;5663;50.864;12.096;2023-02-28T08:24:11;13.77;;;8.10;;
11211;SDS011;5663;50.864;12.096;2023-02-28T08:26:39;11.07;;;7.70;;
11211;SDS011;5663;50.864;12.096;2023-02-28T08:29:06;9.83;;;7.50;;
11211;SDS011;5663;50.864;12.096;2023-02-28T08:31:34;10.83;;;7.70;;
11211;SDS011;5663;50.864;12.096;2023-02-28T08:34:04;11.17;;;7.73;;
11211;SDS011;5663;50.864;12.096;2023-02-28T08:36:32;13.27;;;8.23;;
11211;SDS011;5663;50.864;12.096;2023-02-28T08:39:00;12.40;;;7.90;;
11211;SDS011;5663;50.864;12.096;2023-02-28T08:41:30;11.33;;;7.47;;
11211;SDS011;5663;50.864;12.096;2023-02-28T08:43:58;13.57;;;7.87;;
11211;SDS011;5663;50.864;12.096;2023-02-28T08:46:25;16.73;;;8.40;;
11211;SDS011;5663;50.864;12.096;2023-02-28T08:48:54;14.03;;;7.90;;
11211;SDS011;5663;50.864;12.096;2023-02-28T08:51:25;14.30;;;8.47;;
11211;SDS011;5663;50.864;12.096;2023-02-28T08:53:53;9.70;;;7.67;;
11211;SDS011;5663;50.864;12.096;2023-02-28T08:56:23;12.77;;;7.73;;
11211;SDS011;5663;50.864;12.096;2023-02-28T08:58:53;11.47;;;7.83;;
11211;SDS011;5663;50.864;12.096;2023-02-28T09:01:23;9.70;;;7.23;;
11211;SDS011;5663;50.864;12.096;2023-02-28T09:03:52;11.90;;;7.27;;
11211;SDS011;5663;50.864;12.096;2023-02-28T09:06:21;12.57;;;8.13;;
11211;SDS011;5663;50.864;12.096;2023-02-28T09:08:51;12.57;;;7.93;;
11211;SDS011;5663;50.864;12.096;2023-02-28T09:11:19;13.87;;;8.43;;
11211;SDS011;5663;50.864;12.096;2023-02-28T09:13:47;12.97;;;8.20;;
11211;SDS011;5663;50.864;12.096;2023-02-28T09:16:24;12.27;;;8.10;;
11211;SDS011;5663;50.864;12.096;2023-02-28T09:19:10;11.67;;;8.00;;
11211;SDS011;5663;50.864;12.096;2023-02-28T09:21:39;13.77;;;7.87;;
11211;SDS011;5663;50.864;12.096;2023-02-28T09:24:07;12.80;;;7.70;;
11211;SDS011;5663;50.864;12.096;2023-02-28T09:26:37;11.60;;;7.67;;
11211;SDS011;5663;50.864;12.096;2023-02-28T09:29:05;10.80;;;7.10;;
11211;SDS011;5663;50.864;12.096;2023-02-28T09:31:34;10.73;;;7.03;;
11211;SDS011;5663;50.864;12.096;2023-02-28T09:34:03;10.73;;;6.83;;
11211;SDS011;5663;50.864;12.096;2023-02-28T09:36:32;10.20;;;7.13;;
11211;SDS011;5663;50.864;12.096;2023-02-28T09:39:00;9.10;;;6.70;;
11211;SDS011;5663;50.864;12.096;2023-02-28T09:41:29;10.37;;;6.60;;
11211;SDS011;5663;50.864;12.096;2023-02-28T09:44:05;8.10;;;6.00;;
11211;SDS011;5663;50.864;12.096;2023-02-28T09:46:44;11.07;;;6.90;;
11211;SDS011;5663;50.864;12.096;2023-02-28T09:49:14;10.80;;;7.00;;
11211;SDS011;5663;50.864;12.096;2023-02-28T09:51:48;13.30;;;6.83;;
11211;SDS011;5663;50.864;12.096;2023-02-28T09:54:20;9.43;;;6.67;;
11211;SDS011;5663;50.864;12.096;2023-02-28T09:56:50;9.23;;;6.23;;
11211;SDS011;5663;50.864;12.096;2023-02-28T09:59:25;8.90;;;6.17;;
11211;SDS011;5663;50.864;12.096;2023-02-28T10:02:08;11.27;;;6.83;;
11211;SDS011;5663;50.864;12.096;2023-02-28T10:04:46;10.30;;;6.20;;
11211;SDS011;5663;50.864;12.096;2023-02-28T10:07:23;8.13;;;5.83;;
11211;SDS011;5663;50.864;12.096;2023-02-28T10:10:06;10.10;;;5.77;;
11211;SDS011;5663;50.864;12.096;2023-02-28T10:12:43;8.47;;;6.33;;
11211;SDS011;5663;50.864;12.096;2023-02-28T10:15:14;10.43;;;6.20;;
11211;SDS011;5663;50.864;12.096;2023-02-28T10:17:46;8.20;;;6.03;;
11211;SDS011;5663;50.864;12.096;2023-02-28T10:20:17;8.07;;;5.90;;
11211;SDS011;5663;50.864;12.096;2023-02-28T10:22:50;10.93;;;6.30;;
11211;SDS011;5663;50.864;12.096;2023-02-28T10:25:23;8.57;;;6.00;;
11211;SDS011;5663;50.864;12.096;2023-02-28T10:27:53;9.43;;;5.83;;
11211;SDS011;5663;50.864;12.096;2023-02-28T10:30:26;7.53;;;5.90;;
11211;SDS011;5663;50.864;12.096;2023-02-28T10:32:56;11.67;;;6.87;;
11211;SDS011;5663;50.864;12.096;2023-02-28T10:35:24;8.17;;;6.17;;
11211;SDS011;5663;50.864;12.096;2023-02-28T10:37:54;8.77;;;6.33;;
11211;SDS011;5663;50.864;12.096;2023-02-28T10:40:28;9.67;;;6.20;;
11211;SDS011;5663;50.864;12.096;2023-02-28T10:42:59;11.33;;;5.80;;
11211;SDS011;5663;50.864;12.096;2023-02-28T10:45:28;8.13;;;5.90;;
11211;SDS011;5663;50.864;12.096;2023-02-28T10:48:00;10.27;;;6.27;;
11211;SDS011;5663;50.864;12.096;2023-02-28T10:50:33;10.60;;;6.97;;
11211;SDS011;5663;50.864;12.096;2023-02-28T10:53:22;11.23;;;6.40;;
11211;SDS011;5663;50.864;12.096;2023-02-28T10:55:58;9.53;;;6.70;;
11211;SDS011;5663;50.864;12.096;2023-02-28T10:58:28;9.37;;;6.70;;
11211;SDS011;5663;50.864;12.096;2023-02-28T11:00:58;10.90;;;7.00;;
11211;SDS011;5663;50.864;12.096;2023-02-28T11:03:31;8.43;;;6.10;;
11211;SDS011;5663;50.864;12.096;2023-02-28T11:06:04;9.30;;;6.93;;
11211;SDS011;5663;50.864;12.096;2023-02-28T11:08:34;10.67;;;6.67;;
11211;SDS011;5663;50.864;12.096;2023-02-28T11:11:13;10.20;;;6.77;;
11211;SDS011;5663;50.864;12.096;2023-02-28T11:13:42;10.10;;;6.80;;
11211;SDS011;5663;50.864;12.096;2023-02-28T11:16:13;11.07;;;6.90;;
11211;SDS011;5663;50.864;12.096;2023-02-28T11:18:46;9.23;;;6.67;;
11211;SDS011;5663;50.864;12.096;2023-02-28T11:21:21;9.53;;;6.73;;
11211;SDS011;5663;50.864;12.096;2023-02-28T11:23:51;10.57;;;6.90;;
11211;SDS011;5663;50.864;12.096;2023-02-28T11:26:38;9.97;;;7.10;;
11211;SDS011;5663;50.864;12.096;2023-02-28T11:29:12;9.47;;;7.57;;
11211;SDS011;5663;50.864;12.096;2023-02-28T11:32:02;9.27;;;6.90;;
11211;SDS011;5663;50.864;12.096;2023-02-28T11:34:36;9.30;;;6.97;;
11211;SDS011;5663;50.864;12.096;2023-02-28T11:37:05;12.50;;;7.47;;
11211;SDS011;5663;50.864;12.096;2023-02-28T11:39:39;9.43;;;6.63;;
11211;SDS011;5663;50.864;12.096;2023-02-28T11:42:11;9.67;;;6.67;;
11211;SDS011;5663;50.864;12.096;2023-02-28T11:44:58;9.80;;;6.37;;
11211;SDS011;5663;50.864;12.096;2023-02-28T11:47:36;9.10;;;6.87;;
11211;SDS011;5663;50.864;12.096;2023-02-28T11:50:15;9.93;;;6.50;;
11211;SDS011;5663;50.864;12.096;2023-02-28T11:52:48;11.03;;;6.93;;
11211;SDS011;5663;50.864;12.096;2023-02-28T11:55:20;9.57;;;6.93;;
11211;SDS011;5663;50.864;12.096;2023-02-28T11:57:59;9.73;;;6.40;;
11211;SDS011;5663;50.864;12.096;2023-02-28T12:00:40;9.87;;;6.63;;
11211;SDS011;5663;50.864;12.096;2023-02-28T12:03:31;9.23;;;6.50;;
11211;SDS011;5663;50.864;12.096;2023-02-28T12:06:15;10.87;;;7.70;;
11211;SDS011;5663;50.864;12.096;2023-02-28T12:11:43;9.13;;;7.20;;
11211;SDS011;5663;50.864;12.096;2023-02-28T12:17:34;9.67;;;7.03;;
11211;SDS011;5663;50.864;12.096;2023-02-28T12:20:15;9.40;;;6.90;;
11211;SDS011;5663;50.864;12.096;2023-02-28T12:22:54;10.87;;;7.23;;
11211;SDS011;5663;50.864;12.096;2023-02-28T12:25:43;10.37;;;6.90;;
11211;SDS011;5663;50.864;12.096;2023-02-28T12:28:23;11.17;;;8.20;;
11211;SDS011;5663;50.864;12.096;2023-02-28T12:30:55;11.60;;;8.13;;
11211;SDS011;5663;50.864;12.096;2023-02-28T12:33:28;11.23;;;8.07;;
11211;SDS011;5663;50.864;12.096;2023-02-28T12:36:03;11.27;;;8.00;;
11211;SDS011;5663;50.864;12.096;2023-02-28T12:38:40;11.27;;;7.60;;
11211;SDS011;5663;50.864;12.096;2023-02-28T12:41:13;11.07;;;8.13;;
11211;SDS011;5663;50.864;12.096;2023-02-28T12:43:44;9.37;;;7.37;;
11211;SDS011;5663;50.864;12.096;2023-02-28T12:46:15;10.30;;;7.97;;
11211;SDS011;5663;50.864;12.096;2023-02-28T12:48:49;10.57;;;7.60;;
11211;SDS011;5663;50.864;12.096;2023-02-28T12:51:21;10.53;;;7.90;;
11211;SDS011;5663;50.864;12.096;2023-02-28T12:53:59;11.40;;;7.50;;
11211;SDS011;5663;50.864;12.096;2023-02-28T12:56:40;10.73;;;7.87;;
11211;SDS011;5663;50.864;12.096;2023-02-28T12:59:15;12.17;;;8.13;;
11211;SDS011;5663;50.864;12.096;2023-02-28T13:02:00;10.70;;;7.90;;
11211;SDS011;5663;50.864;12.096;2023-02-28T13:07:49;12.00;;;8.73;;
11211;SDS011;5663;50.864;12.096;2023-02-28T13:10:42;9.67;;;7.47;;
11211;SDS011;5663;50.864;12.096;2023-02-28T13:13:16;9.73;;;7.60;;
11211;SDS011;5663;50.864;12.096;2023-02-28T13:15:58;11.17;;;8.30;;
11211;SDS011;5663;50.864;12.096;2023-02-28T13:18:29;10.13;;;7.43;;
11211;SDS011;5663;50.864;12.096;2023-02-28T13:20:59;11.90;;;8.07;;
11211;SDS011;5663;50.864;12.096;2023-02-28T13:23:38;12.47;;;7.90;;
11211;SDS011;5663;50.864;12.096;2023-02-28T13:26:34;10.90;;;8.13;;
11211;SDS011;5663;50.864;12.096;2023-02-28T13:29:39;11.83;;;7.77;;
11211;SDS011;5663;50.864;12.096;2023-02-28T13:35:13;12.40;;;9.13;;
11211;SDS011;5663;50.864;12.096;2023-02-28T13:40:48;11.10;;;8.40;;
11211;SDS011;5663;50.864;12.096;2023-02-28T13:43:18;11.73;;;8.77;;
11211;SDS011;5663;50.864;12.096;2023-02-28T13:46:06;11.10;;;8.30;;
11211;SDS011;5663;50.864;12.096;2023-02-28T13:48:37;10.67;;;7.77;;
11211;SDS011;5663;50.864;12.096;2023-02-28T13:57:17;13.70;;;8.60;;
11211;SDS011;5663;50.864;12.096;2023-02-28T13:59:56;11.07;;;8.30;;
11211;SDS011;5663;50.864;12.096;2023-02-28T14:02:47;9.80;;;8.30;;
11211;SDS011;5663;50.864;12.096;2023-02-28T14:05:42;15.07;;;9.07;;
11211;SDS011;5663;50.864;12.096;2023-02-28T14:08:12;12.47;;;8.77;;
11211;SDS011;5663;50.864;12.096;2023-02-28T14:10:44;11.53;;;8.17;;
11211;SDS011;5663;50.864;12.096;2023-02-28T14:13:36;11.43;;;8.30;;
11211;SDS011;5663;50.864;12.096;2023-02-28T14:16:14;11.77;;;9.00;;
11211;SDS011;5663;50.864;12.096;2023-02-28T14:18:48;15.27;;;8.40;;
11211;SDS011;5663;50.864;12.096;2023-02-28T14:21:22;14.87;;;8.87;;
11211;SDS011;5663;50.864;12.096;2023-02-28T14:24:09;12.93;;;8.03;;
11211;SDS011;5663;50.864;12.096;2023-02-28T14:27:05;13.27;;;8.40;;
11211;SDS011;5663;50.864;12.096;2023-02-28T14:32:43;12.63;;;8.60;;
11211;SDS011;5663;50.864;12.096;2023-02-28T14:35:20;11.20;;;8.90;;
11211;SDS011;5663;50.864;12.096;2023-02-28T14:38:00;10.77;;;8.13;;
11211;SDS011;5663;50.864;12.096;2023-02-28T14:40:33;10.17;;;8.07;;
11211;SDS011;5663;50.864;12.096;2023-02-28T14:43:03;13.13;;;9.13;;
11211;SDS011;5663;50.864;12.096;2023-02-28T14:45:32;14.73;;;9.93;;
11211;SDS011;5663;50.864;12.096;2023-02-28T14:48:05;19.13;;;10.67;;
11211;SDS011;5663;50.864;12.096;2023-02-28T14:50:37;15.93;;;9.63;;
11211;SDS011;5663;50.864;12.096;2023-02-28T14:53:05;15.20;;;10.10;;
11211;SDS011;5663;50.864;12.096;2023-02-28T14:55:44;12.50;;;9.10;;
11211;SDS011;5663;50.864;12.096;2023-02-28T14:58:18;12.50;;;9.50;;
11211;SDS011;5663;50.864;12.096;2023-02-28T15:00:51;14.80;;;9.90;;
11211;SDS011;5663;50.864;12.096;2023-02-28T15:03:22;12.20;;;8.93;;
11211;SDS011;5663;50.864;12.096;2023-02-28T15:05:51;11.90;;;8.73;;
11211;SDS011;5663;50.864;12.096;2023-02-28T15:08:20;13.93;;;9.43;;
11211;SDS011;5663;50.864;12.096;2023-02-28T15:10:50;12.63;;;9.30;;
11211;SDS011;5663;50.864;12.096;2023-02-28T15:13:21;13.67;;;8.97;;
11211;SDS011;5663;50.864;12.096;2023-02-28T15:15:52;12.77;;;9.10;;
11211;SDS011;5663;50.864;12.096;2023-02-28T15:18:25;13.00;;;9.07;;
11211;SDS011;5663;50.864;12.096;2023-02-28T15:21:02;13.73;;;9.53;;
11211;SDS011;5663;50.864;12.096;2023-02-28T15:23:31;14.77;;;9.17;;
11211;SDS011;5663;50.864;12.096;2023-02-28T15:26:02;15.40;;;9.63;;
11211;SDS011;5663;50.864;12.096;2023-02-28T15:28:31;13.80;;;9.50;;
11211;SDS011;5663;50.864;12.096;2023-02-28T15:31:00;13.33;;;9.10;;
11211;SDS011;5663;50.864;12.096;2023-02-28T15:33:32;13.03;;;9.70;;
11211;SDS011;5663;50.864;12.096;2023-02-28T15:36:04;12.73;;;9.47;;
11211;SDS011;5663;50.864;12.096;2023-02-28T15:38:34;13.40;;;9.20;;
11211;SDS011;5663;50.864;12.096;2023-02-28T15:41:03;14.93;;;9.57;;
11211;SDS011;5663;50.864;12.096;2023-02-28T15:43:34;15.07;;;9.10;;
11211;SDS011;5663;50.864;12.096;2023-02-28T15:46:04;13.13;;;9.73;;
11211;SDS011;5663;50.864;12.096;2023-02-28T15:48:35;12.40;;;9.57;;
11211;SDS011;5663;50.864;12.096;2023-02-28T15:51:12;11.30;;;8.47;;